createdAt,value
2019-06-01T02:52:17.542Z,13.20
2019-06-01T02:57:22.593Z,13.10
2019-06-01T03:02:27.442Z,13.10
2019-06-01T03:07:33.454Z,13.10
2019-06-01T03:12:46.212Z,13.20
2019-06-01T03:17:53.926Z,13.20
2019-06-01T03:22:59.647Z,13.30
2019-06-01T03:28:04.785Z,13.30
2019-06-01T03:33:10.658Z,13.40
2019-06-01T03:38:15.855Z,13.40
2019-06-01T03:43:21.930Z,13.50
2019-06-01T03:48:26.855Z,13.50
2019-06-01T03:53:31.871Z,13.60
2019-06-01T03:58:36.713Z,13.70
2019-06-01T04:03:41.592Z,13.90
2019-06-01T04:08:46.434Z,14.00
2019-06-01T04:13:51.280Z,14.10
2019-06-01T04:18:56.480Z,14.20
2019-06-01T04:24:01.861Z,14.30
2019-06-01T04:29:08.240Z,14.30
2019-06-01T04:34:13.364Z,14.50
2019-06-01T04:39:18.287Z,14.50
2019-06-01T04:44:23.493Z,14.60
2019-06-01T04:49:28.513Z,14.70
2019-06-01T04:54:33.278Z,14.70
2019-06-01T04:59:38.256Z,14.80
2019-06-01T05:04:43.726Z,15.00
2019-06-01T05:09:48.632Z,15.10
2019-06-01T05:14:53.491Z,15.30
2019-06-01T05:19:58.336Z,15.50
2019-06-01T05:25:03.622Z,15.70
2019-06-01T05:30:09.464Z,15.90
2019-06-01T05:35:16.095Z,16.10
2019-06-01T05:40:20.929Z,16.30
2019-06-01T05:45:26.124Z,16.50
2019-06-01T05:50:30.967Z,16.60
2019-06-01T05:55:35.808Z,16.70
2019-06-01T06:00:42.860Z,16.90
2019-06-01T06:05:47.712Z,17.00
2019-06-01T06:10:52.506Z,17.10
2019-06-01T06:15:57.269Z,17.30
2019-06-01T06:21:02.119Z,17.50
2019-06-01T06:26:06.951Z,17.70
2019-06-01T06:31:12.861Z,17.80
2019-06-01T06:36:17.832Z,17.80
2019-06-01T06:41:22.812Z,17.90
2019-06-01T06:46:27.737Z,18.10
2019-06-01T06:51:32.496Z,17.90
2019-06-01T06:56:37.351Z,18.40
2019-06-01T07:01:42.304Z,18.30
2019-06-01T07:06:47.158Z,18.30
2019-06-01T07:11:52.119Z,18.30
2019-06-01T07:16:56.950Z,18.40
2019-06-01T07:22:01.813Z,18.00
2019-06-01T07:27:06.656Z,18.00
2019-06-01T07:32:11.673Z,18.20
2019-06-01T07:37:16.581Z,18.20
2019-06-01T07:42:24.423Z,18.40
2019-06-01T07:47:29.069Z,18.40
2019-06-01T07:52:34.388Z,18.40
2019-06-01T07:57:42.926Z,18.50
2019-06-01T08:02:45.723Z,18.60
2019-06-01T08:07:50.575Z,19.10
2019-06-01T08:12:55.502Z,19.50
2019-06-01T08:18:00.525Z,19.70
2019-06-01T08:23:05.420Z,19.90
2019-06-01T08:28:10.207Z,20.00
2019-06-01T08:33:15.200Z,20.20
2019-06-01T08:38:20.088Z,20.50
2019-06-01T08:43:27.512Z,20.80
2019-06-01T08:48:33.933Z,21.00
2019-06-01T08:53:39.197Z,21.00
2019-06-01T08:58:44.047Z,21.00
2019-06-01T09:03:48.894Z,21.20
2019-06-01T09:08:53.661Z,21.20
2019-06-01T09:13:58.511Z,21.40
2019-06-01T09:19:05.034Z,21.90
2019-06-01T09:24:09.899Z,22.30
2019-06-01T09:29:14.734Z,22.80
2019-06-01T09:34:19.571Z,23.00
2019-06-01T09:39:24.408Z,23.20
2019-06-01T09:44:29.245Z,23.60
2019-06-01T09:49:34.174Z,23.90
2019-06-01T09:54:39.022Z,24.50
2019-06-01T09:59:43.888Z,24.80
2019-06-01T10:04:48.757Z,24.90
2019-06-01T10:09:53.526Z,24.90
2019-06-01T10:14:58.706Z,25.10
2019-06-01T10:20:05.274Z,25.00
2019-06-01T10:25:10.210Z,24.80
2019-06-01T10:30:16.598Z,25.30
2019-06-01T10:35:21.593Z,25.50
2019-06-01T10:40:26.499Z,25.40
2019-06-01T10:45:31.782Z,25.40
2019-06-01T10:50:38.260Z,25.80
2019-06-01T10:55:46.151Z,26.10
2019-06-01T11:00:51.495Z,26.20
2019-06-01T11:05:56.850Z,26.10
2019-06-01T11:11:01.787Z,26.10
2019-06-01T11:16:06.629Z,26.10
2019-06-01T11:21:11.548Z,25.90
2019-06-01T11:26:16.770Z,26.50
2019-06-01T11:31:21.610Z,26.70
2019-06-01T11:36:26.455Z,26.60
2019-06-01T11:41:31.295Z,26.80
2019-06-01T11:46:36.733Z,27.20
2019-06-01T11:51:43.348Z,27.10
2019-06-01T11:56:48.308Z,27.20
2019-06-01T12:01:53.141Z,27.10
2019-06-01T12:07:15.780Z,27.10
2019-06-01T12:12:04.559Z,27.40
2019-06-01T12:17:09.407Z,27.30
2019-06-01T12:22:14.249Z,26.60
2019-06-01T12:27:19.086Z,26.80
2019-06-01T12:32:23.943Z,27.00
2019-06-01T12:37:45.454Z,26.60
2019-06-01T12:42:35.086Z,26.60
2019-06-01T12:47:39.974Z,26.30
2019-06-01T12:52:44.794Z,25.90
2019-06-01T12:57:49.643Z,25.90
2019-06-01T13:03:06.037Z,26.30
2019-06-01T13:08:02.898Z,26.90
2019-06-01T13:13:07.388Z,27.50
2019-06-01T13:18:12.234Z,27.60
2019-06-01T13:23:16.992Z,27.60
2019-06-01T13:28:37.289Z,27.40
2019-06-01T13:33:28.272Z,27.30
2019-06-01T13:38:33.106Z,27.70
2019-06-01T13:43:38.113Z,27.40
2019-06-01T13:48:43.574Z,27.30
2019-06-01T13:53:48.535Z,27.20
2019-06-01T13:58:54.395Z,26.80
2019-06-01T14:03:59.459Z,26.40
2019-06-01T14:09:06.870Z,26.20
2019-06-01T14:14:11.629Z,26.30
2019-06-01T14:19:16.390Z,26.40
2019-06-01T14:24:21.216Z,26.30
2019-06-01T14:29:26.063Z,26.20
2019-06-01T14:34:30.908Z,26.50
2019-06-01T14:39:35.733Z,26.90
2019-06-01T14:44:40.660Z,27.30
2019-06-01T14:49:45.507Z,26.90
2019-06-01T14:54:51.676Z,26.80
2019-06-01T14:59:56.764Z,27.20
2019-06-01T15:05:01.518Z,27.60
2019-06-01T15:10:09.514Z,27.90
2019-06-01T15:15:14.456Z,27.90
2019-06-01T15:20:19.595Z,27.70
2019-06-01T15:25:24.815Z,27.60
2019-06-01T15:30:29.652Z,27.70
2019-06-01T15:35:34.487Z,27.70
2019-06-01T15:40:39.348Z,27.60
2019-06-01T15:45:44.163Z,27.70
2019-06-01T15:50:49.648Z,27.70
2019-06-01T15:55:54.611Z,27.60
2019-06-01T16:00:59.396Z,27.50
2019-06-01T16:06:04.628Z,27.30
2019-06-01T16:11:09.472Z,27.30
2019-06-01T16:16:14.315Z,27.60
2019-06-01T16:21:19.275Z,27.30
2019-06-01T16:26:24.100Z,27.00
2019-06-01T16:31:28.951Z,26.60
2019-06-01T16:36:33.726Z,26.50
2019-06-01T16:41:38.571Z,26.40
2019-06-01T16:46:43.410Z,26.30
2019-06-01T16:51:56.423Z,26.30
2019-06-01T16:57:02.641Z,26.20
2019-06-01T17:02:08.431Z,26.30
2019-06-01T17:07:13.564Z,26.10
2019-06-01T17:12:18.657Z,26.10
2019-06-01T17:17:23.553Z,25.90
2019-06-01T17:22:28.381Z,25.70
2019-06-01T17:27:33.214Z,25.50
2019-06-01T17:32:37.983Z,25.50
2019-06-01T17:37:42.812Z,25.40
2019-06-01T17:42:47.654Z,25.30
2019-06-01T17:47:52.491Z,25.30
2019-06-01T17:52:57.610Z,25.10
2019-06-01T17:58:03.509Z,24.90
2019-06-01T18:03:09.867Z,24.80
2019-06-01T18:08:15.234Z,24.60
2019-06-01T18:13:20.040Z,24.50
2019-06-01T18:18:24.947Z,24.40
2019-06-01T18:23:29.784Z,24.20
2019-06-01T18:28:34.624Z,24.10
2019-06-01T18:33:39.466Z,23.90
2019-06-01T18:38:44.299Z,23.60
2019-06-01T18:43:49.158Z,23.30
2019-06-01T18:48:53.976Z,23.10
2019-06-01T18:53:59.085Z,22.80
2019-06-01T18:59:05.008Z,22.70
2019-06-01T19:04:11.456Z,22.50
2019-06-01T19:09:16.675Z,22.30
2019-06-01T19:14:21.508Z,22.10
2019-06-01T19:19:26.336Z,22.00
2019-06-01T19:24:31.057Z,21.90
2019-06-01T19:29:35.951Z,21.70
2019-06-01T19:34:40.916Z,21.50
2019-06-01T19:39:47.060Z,21.40
2019-06-01T19:44:51.907Z,21.20
2019-06-01T19:49:56.744Z,21.00
2019-06-01T19:55:01.629Z,20.80
2019-06-01T20:00:07.940Z,20.60
2019-06-01T20:05:13.046Z,20.40
2019-06-01T20:10:18.528Z,20.30
2019-06-01T20:15:23.781Z,20.10
2019-06-01T20:20:28.632Z,20.10
2019-06-01T20:25:33.517Z,19.90
2019-06-01T20:30:38.355Z,19.80
2019-06-01T20:35:43.208Z,19.70
2019-06-01T20:40:48.397Z,19.60
2019-06-01T20:45:56.673Z,19.50
2019-06-01T20:50:59.641Z,19.40
2019-06-01T20:56:04.519Z,19.30
2019-06-01T21:01:09.373Z,19.10
2019-06-01T21:06:14.221Z,19.00
2019-06-01T21:11:20.023Z,18.80
2019-06-01T21:16:24.984Z,18.70
2019-06-01T21:21:29.956Z,18.70
2019-06-01T21:26:34.998Z,18.70
2019-06-01T21:31:39.830Z,18.60
2019-06-01T21:36:44.667Z,18.50
2019-06-01T21:41:51.831Z,18.50
2019-06-01T21:46:56.697Z,18.40
2019-06-01T21:52:01.529Z,18.40
2019-06-01T21:57:06.363Z,18.30
2019-06-01T22:02:11.201Z,18.20
2019-06-01T22:07:17.253Z,18.10
2019-06-01T22:12:23.522Z,18.10
2019-06-01T22:17:28.462Z,18.10
2019-06-01T22:22:33.311Z,18.10
2019-06-01T22:27:38.095Z,18.00
2019-06-01T22:32:42.935Z,17.90
2019-06-01T22:37:47.867Z,17.90
2019-06-01T22:42:52.703Z,17.80
2019-06-01T22:47:57.542Z,17.70
2019-06-01T22:53:02.377Z,17.70
2019-06-01T22:58:07.287Z,17.70
2019-06-01T23:03:12.072Z,17.50
2019-06-01T23:08:16.917Z,17.50
2019-06-01T23:13:21.680Z,17.40
2019-06-01T23:18:27.839Z,17.40
2019-06-01T23:23:32.987Z,17.30
2019-06-01T23:28:38.793Z,17.30
2019-06-01T23:33:43.766Z,17.20
2019-06-01T23:38:48.907Z,17.10
2019-06-01T23:44:10.442Z,17.00
2019-06-01T23:49:00.208Z,17.00
2019-06-01T23:54:05.173Z,16.90
2019-06-01T23:59:10.292Z,16.80
